createdAt,value
2022-08-07T00:00:27.957Z,0.40
2022-08-07T00:02:56.864Z,0.40
2022-08-07T00:05:24.967Z,0.40
2022-08-07T00:07:59.788Z,0.30
2022-08-07T00:10:30.917Z,0.40
2022-08-07T00:13:17.421Z,0.40
2022-08-07T00:15:55.905Z,0.30
2022-08-07T00:18:28.684Z,0.50
2022-08-07T00:21:08.127Z,0.40
2022-08-07T00:23:52.765Z,0.40
2022-08-07T00:26:48.758Z,0.30
2022-08-07T00:29:06.234Z,0.43
2022-08-07T00:31:37.881Z,0.50
2022-08-07T00:34:09.105Z,0.40
2022-08-07T00:36:42.652Z,0.40
2022-08-07T00:39:16.963Z,0.40
2022-08-07T00:42:02.223Z,0.40
2022-08-07T00:44:33.637Z,0.47
2022-08-07T00:47:16.150Z,0.50
2022-08-07T00:50:21.216Z,0.60
2022-08-07T00:52:40.046Z,0.45
2022-08-07T00:55:10.382Z,0.50
2022-08-07T00:57:37.527Z,0.60
2022-08-07T01:00:15.728Z,0.40
2022-08-07T01:02:43.007Z,0.57
2022-08-07T01:05:19.243Z,0.40
2022-08-07T01:07:47.536Z,0.50
2022-08-07T01:10:17.122Z,0.50
2022-08-07T01:12:53.772Z,0.40
2022-08-07T01:15:35.641Z,0.50
2022-08-07T01:18:03.162Z,0.50
2022-08-07T01:20:45.858Z,0.50
2022-08-07T01:23:36.353Z,0.40
2022-08-07T01:26:08.390Z,0.43
2022-08-07T01:28:45.864Z,0.52
2022-08-07T01:31:20.336Z,0.50
2022-08-07T01:33:55.429Z,0.52
2022-08-07T01:36:33.208Z,0.45
2022-08-07T01:39:01.175Z,0.55
2022-08-07T01:41:28.765Z,0.50
2022-08-07T01:44:03.169Z,0.60
2022-08-07T01:46:31.143Z,0.50
2022-08-07T01:48:59.966Z,0.65
2022-08-07T01:52:03.417Z,0.60
2022-08-07T01:54:32.636Z,0.40
2022-08-07T01:57:20.744Z,0.50
2022-08-07T02:00:13.327Z,0.52
2022-08-07T02:03:19.016Z,0.60
2022-08-07T02:05:59.982Z,0.70
2022-08-07T02:08:33.792Z,0.50
2022-08-07T02:11:03.835Z,0.50
2022-08-07T02:13:56.403Z,0.60
2022-08-07T02:16:28.550Z,0.68
2022-08-07T02:20:05.205Z,0.60
2022-08-07T02:21:59.624Z,0.32
2022-08-07T02:24:30.074Z,0.50
2022-08-07T02:27:01.430Z,0.50
2022-08-07T02:29:31.604Z,0.57
2022-08-07T02:32:01.888Z,0.60
2022-08-07T02:34:33.022Z,0.70
2022-08-07T02:37:08.295Z,0.60
2022-08-07T02:40:02.291Z,0.50
2022-08-07T02:42:39.547Z,0.75
2022-08-07T02:46:00.804Z,0.57
2022-08-07T02:47:59.169Z,0.60
2022-08-07T02:50:30.781Z,0.52
2022-08-07T02:53:07.399Z,0.63
2022-08-07T02:56:03.934Z,0.60
2022-08-07T02:58:34.683Z,0.70
2022-08-07T03:01:04.038Z,0.60
2022-08-07T03:03:50.038Z,0.60
2022-08-07T03:06:25.824Z,0.60
2022-08-07T03:09:03.628Z,0.68
2022-08-07T03:11:38.555Z,0.67
2022-08-07T03:14:07.456Z,0.68
2022-08-07T03:16:35.959Z,0.70
2022-08-07T03:19:06.057Z,0.68
2022-08-07T03:21:33.397Z,0.65
2022-08-07T03:24:21.192Z,0.70
2022-08-07T03:26:59.060Z,0.73
2022-08-07T03:29:49.627Z,0.70
2022-08-07T03:32:33.417Z,0.70
2022-08-07T03:35:17.762Z,0.70
2022-08-07T03:37:53.990Z,0.70
2022-08-07T03:40:23.555Z,0.80
2022-08-07T03:43:14.761Z,0.60
2022-08-07T03:46:10.492Z,0.70
2022-08-07T03:49:03.710Z,0.88
2022-08-07T03:51:55.140Z,0.60
2022-08-07T03:54:54.102Z,0.70
2022-08-07T03:58:33.287Z,0.50
2022-08-07T04:00:29.194Z,0.57
2022-08-07T04:02:59.640Z,0.50
2022-08-07T04:05:40.734Z,0.52
2022-08-07T04:08:16.200Z,0.60
2022-08-07T04:10:54.290Z,0.60
2022-08-07T04:14:10.160Z,0.70
2022-08-07T04:16:31.196Z,0.68
2022-08-07T04:19:14.679Z,0.70
2022-08-07T04:21:58.886Z,1.05
2022-08-07T04:24:30.721Z,0.63
2022-08-07T04:27:02.857Z,0.68
2022-08-07T04:29:40.351Z,0.55
2022-08-07T04:32:18.712Z,0.63
2022-08-07T04:35:07.341Z,0.52
2022-08-07T04:38:03.257Z,0.65
2022-08-07T04:40:30.002Z,0.60
2022-08-07T04:43:22.225Z,0.50
2022-08-07T04:47:03.906Z,0.50
2022-08-07T04:49:58.011Z,0.50
2022-08-07T04:52:58.196Z,0.50
2022-08-07T04:58:12.160Z,0.70
2022-08-07T04:59:16.984Z,0.60
2022-08-07T05:01:57.245Z,0.60
2022-08-07T05:04:43.920Z,0.60
2022-08-07T05:07:43.408Z,0.47
2022-08-07T05:10:29.144Z,0.50
2022-08-07T05:14:44.730Z,0.50
2022-08-07T05:15:59.854Z,0.50
2022-08-07T05:18:36.674Z,0.50
2022-08-07T05:21:09.774Z,0.50
2022-08-07T05:23:45.723Z,0.43
2022-08-07T05:26:23.658Z,0.52
2022-08-07T05:28:58.049Z,0.60
2022-08-07T05:31:35.375Z,0.50
2022-08-07T05:34:11.122Z,0.50
2022-08-07T05:36:43.449Z,0.60
2022-08-07T05:40:13.675Z,0.85
2022-08-07T05:42:02.238Z,0.50
2022-08-07T05:44:36.298Z,0.60
2022-08-07T05:47:18.395Z,0.68
2022-08-07T05:49:50.584Z,0.60
2022-08-07T05:52:32.194Z,0.60
2022-08-07T05:55:05.446Z,0.60
2022-08-07T05:57:41.932Z,0.50
2022-08-07T06:00:16.156Z,0.57
2022-08-07T06:02:52.253Z,0.52
2022-08-07T06:05:26.061Z,0.40
2022-08-07T06:08:13.536Z,0.50
2022-08-07T06:13:18.692Z,0.50
2022-08-07T06:15:49.926Z,0.47
2022-08-07T06:18:18.278Z,0.50
2022-08-07T06:20:50.482Z,0.63
2022-08-07T06:24:37.907Z,0.50
2022-08-07T06:26:21.977Z,0.60
2022-08-07T06:29:00.051Z,0.55
2022-08-07T06:31:46.554Z,0.50
2022-08-07T06:34:15.219Z,0.60
2022-08-07T06:36:46.572Z,0.50
2022-08-07T06:40:17.434Z,0.57
2022-08-07T06:42:39.977Z,0.50
2022-08-07T06:45:18.315Z,0.70
2022-08-07T06:47:48.146Z,0.50
2022-08-07T06:50:26.539Z,0.70
2022-08-07T06:52:55.783Z,0.52
2022-08-07T06:55:54.020Z,0.50
2022-08-07T06:58:27.451Z,0.63
2022-08-07T07:00:57.918Z,0.52
2022-08-07T07:03:26.290Z,0.60
2022-08-07T07:06:11.499Z,0.63
2022-08-07T07:08:39.938Z,0.70
2022-08-07T07:12:08.138Z,0.80
2022-08-07T07:14:04.195Z,0.75
2022-08-07T07:16:50.091Z,0.60
2022-08-07T07:19:57.358Z,0.77
2022-08-07T07:22:33.750Z,0.60
2022-08-07T07:26:31.054Z,0.60
2022-08-07T07:28:42.425Z,0.70
2022-08-07T07:31:44.648Z,0.80
2022-08-07T07:37:14.389Z,0.80
2022-08-07T07:39:52.398Z,0.65
2022-08-07T07:42:32.930Z,0.80
2022-08-07T07:45:06.758Z,1.05
2022-08-07T07:47:52.148Z,0.93
2022-08-07T07:50:33.944Z,1.05
2022-08-07T07:53:13.579Z,0.82
2022-08-07T07:56:00.834Z,0.90
2022-08-07T07:58:36.885Z,0.90
2022-08-07T08:02:02.263Z,0.90
2022-08-07T08:04:10.490Z,0.88
2022-08-07T08:06:50.727Z,1.00
2022-08-07T08:09:24.107Z,1.00
2022-08-07T08:12:01.586Z,1.08
2022-08-07T08:14:34.524Z,1.10
2022-08-07T08:17:32.284Z,1.10
2022-08-07T08:20:22.098Z,1.17
2022-08-07T08:23:14.880Z,0.95
2022-08-07T08:26:06.918Z,0.82
2022-08-07T08:28:44.915Z,1.00
2022-08-07T08:31:22.789Z,0.90
2022-08-07T08:34:01.288Z,0.80
2022-08-07T08:36:34.289Z,0.93
2022-08-07T08:39:03.398Z,0.98
2022-08-07T08:41:58.601Z,1.00
2022-08-07T08:45:41.438Z,0.90
2022-08-07T08:48:32.344Z,1.00
2022-08-07T08:51:49.878Z,0.70
2022-08-07T08:54:31.235Z,0.70
2022-08-07T08:57:08.289Z,0.90
2022-08-07T08:59:52.020Z,0.80
2022-08-07T09:03:09.953Z,0.85
2022-08-07T09:06:06.532Z,0.73
2022-08-07T09:09:09.538Z,0.80
2022-08-07T09:12:31.062Z,0.85
2022-08-07T09:16:23.130Z,0.88
2022-08-07T09:18:47.304Z,0.90
2022-08-07T09:21:57.821Z,0.70
2022-08-07T09:25:00.635Z,0.80
2022-08-07T09:28:00.459Z,0.70
2022-08-07T09:31:17.398Z,0.88
2022-08-07T09:33:58.301Z,0.88
2022-08-07T09:36:37.328Z,0.73
2022-08-07T09:39:52.715Z,0.68
2022-08-07T09:42:28.373Z,0.80
2022-08-07T09:47:50.580Z,0.63
2022-08-07T09:48:55.818Z,0.70
2022-08-07T09:52:10.134Z,0.80
2022-08-07T09:54:54.411Z,0.60
2022-08-07T09:57:46.648Z,0.70
2022-08-07T10:00:20.183Z,0.80
2022-08-07T10:04:05.692Z,0.80
2022-08-07T10:06:37.868Z,0.80
2022-08-07T10:10:01.061Z,0.73
2022-08-07T10:12:55.327Z,0.70
2022-08-07T10:15:44.512Z,0.70
2022-08-07T10:18:57.667Z,0.60
2022-08-07T10:22:17.030Z,0.70
2022-08-07T10:24:57.314Z,0.65
2022-08-07T10:27:53.795Z,0.70
2022-08-07T10:31:11.122Z,0.70
2022-08-07T10:34:17.811Z,0.70
2022-08-07T10:37:18.968Z,0.60
2022-08-07T10:40:30.345Z,0.68
2022-08-07T10:43:34.723Z,0.50
2022-08-07T10:46:13.502Z,0.70
2022-08-07T10:49:02.411Z,0.80
2022-08-07T10:52:13.814Z,0.70
2022-08-07T10:54:53.523Z,0.73
2022-08-07T10:57:58.489Z,0.60
2022-08-07T11:00:50.510Z,0.63
2022-08-07T11:03:55.160Z,0.70
2022-08-07T11:06:40.265Z,0.80
2022-08-07T11:10:09.889Z,0.65
2022-08-07T11:12:31.501Z,0.70
2022-08-07T11:15:17.266Z,0.70
2022-08-07T11:17:50.285Z,0.60
2022-08-07T11:20:35.441Z,0.80
2022-08-07T11:23:30.858Z,0.60
2022-08-07T11:29:40.780Z,0.47
2022-08-07T11:32:15.445Z,0.80
2022-08-07T11:35:02.503Z,0.47
2022-08-07T11:38:08.814Z,0.70
2022-08-07T11:41:02.114Z,0.65
2022-08-07T11:44:12.770Z,0.70
2022-08-07T11:47:06.415Z,0.60
2022-08-07T11:50:31.693Z,0.60
2022-08-07T11:53:08.229Z,0.60
2022-08-07T11:56:27.144Z,0.60
2022-08-07T12:00:12.325Z,0.77
2022-08-07T12:02:52.409Z,0.70
2022-08-07T12:05:51.462Z,0.70
2022-08-07T12:08:37.202Z,1.05
2022-08-07T12:11:21.847Z,0.90
2022-08-07T12:14:27.585Z,0.80
2022-08-07T12:17:02.991Z,0.70
2022-08-07T12:20:04.122Z,0.80
2022-08-07T12:23:14.306Z,0.70
2022-08-07T12:26:41.872Z,0.80
2022-08-07T12:29:38.134Z,0.60
2022-08-07T12:32:48.309Z,0.60
2022-08-07T12:38:10.034Z,0.50
2022-08-07T12:40:47.846Z,0.75
2022-08-07T12:44:01.425Z,0.60
2022-08-07T12:46:53.605Z,0.80
2022-08-07T12:50:38.459Z,0.50
2022-08-07T12:54:02.808Z,0.50
2022-08-07T12:59:33.005Z,0.90
2022-08-07T13:02:33.234Z,0.80
2022-08-07T13:06:02.577Z,0.80
2022-08-07T13:08:41.269Z,0.70
2022-08-07T13:11:31.313Z,0.60
2022-08-07T13:14:55.205Z,0.60
2022-08-07T13:17:42.529Z,0.60
2022-08-07T13:20:27.681Z,0.68
2022-08-07T13:24:03.937Z,0.40
2022-08-07T13:26:19.976Z,0.50
2022-08-07T13:29:27.185Z,0.70
2022-08-07T13:32:32.704Z,0.60
2022-08-07T13:35:12.036Z,0.70
2022-08-07T13:38:21.631Z,0.50
2022-08-07T13:41:31.912Z,0.50
2022-08-07T13:44:10.632Z,0.45
2022-08-07T13:46:49.644Z,0.60
2022-08-07T13:50:33.342Z,0.50
2022-08-07T13:52:31.656Z,0.47
2022-08-07T13:54:58.561Z,0.40
2022-08-07T13:57:38.235Z,0.50
2022-08-07T14:00:26.239Z,0.43
2022-08-07T14:02:58.900Z,0.63
2022-08-07T14:05:37.472Z,0.40
2022-08-07T14:08:08.004Z,0.60
2022-08-07T14:10:42.181Z,0.60
2022-08-07T14:13:18.659Z,0.50
2022-08-07T14:16:06.157Z,0.50
2022-08-07T14:18:56.728Z,0.60
2022-08-07T14:22:02.082Z,0.50
2022-08-07T14:24:41.505Z,0.60
2022-08-07T14:28:09.407Z,0.60
2022-08-07T14:30:11.037Z,0.60
2022-08-07T14:32:47.848Z,0.60
2022-08-07T14:38:30.831Z,0.40
2022-08-07T14:41:14.648Z,0.70
2022-08-07T14:43:55.128Z,0.47
2022-08-07T14:46:31.434Z,0.60
2022-08-07T14:49:17.192Z,0.50
2022-08-07T14:52:03.800Z,0.70
2022-08-07T14:57:25.249Z,0.50
2022-08-07T15:00:20.631Z,0.55
2022-08-07T15:03:16.628Z,0.70
2022-08-07T15:05:54.407Z,1.00
2022-08-07T15:08:47.472Z,0.50
2022-08-07T15:11:53.250Z,0.80
2022-08-07T15:14:15.068Z,0.80
2022-08-07T15:22:53.868Z,0.70
2022-08-07T15:25:50.848Z,0.80
2022-08-07T15:28:34.112Z,0.80
2022-08-07T15:31:10.590Z,0.98
2022-08-07T15:33:42.814Z,0.80
2022-08-07T15:36:11.685Z,0.70
2022-08-07T15:38:59.099Z,0.70
2022-08-07T15:42:46.822Z,0.60
2022-08-07T15:50:03.778Z,0.80
2022-08-07T15:52:38.005Z,0.70
2022-08-07T15:55:12.177Z,0.60
2022-08-07T15:57:48.831Z,0.80
2022-08-07T16:00:31.258Z,0.70
2022-08-07T16:03:06.594Z,0.80
2022-08-07T16:05:52.561Z,0.90
2022-08-07T16:08:33.055Z,0.90
2022-08-07T16:11:26.214Z,0.90
2022-08-07T16:14:17.247Z,0.60
2022-08-07T16:18:02.313Z,0.70
2022-08-07T16:21:42.982Z,0.80
2022-08-07T16:23:59.002Z,0.90
2022-08-07T16:26:30.741Z,0.88
2022-08-07T16:30:10.941Z,0.90
2022-08-07T16:32:35.356Z,0.70
2022-08-07T16:35:58.568Z,0.60
2022-08-07T16:39:00.014Z,0.77
2022-08-07T16:41:41.173Z,0.70
2022-08-07T16:45:24.604Z,0.60
2022-08-07T16:48:28.835Z,0.60
2022-08-07T16:51:57.700Z,0.77
2022-08-07T16:55:16.680Z,0.55
2022-08-07T16:58:08.238Z,0.80
2022-08-07T17:00:54.331Z,0.60
2022-08-07T17:03:59.570Z,0.70
2022-08-07T17:07:28.558Z,0.70
2022-08-07T17:10:32.529Z,0.70
2022-08-07T17:13:41.238Z,0.80
2022-08-07T17:16:55.887Z,0.65
2022-08-07T17:20:03.154Z,0.55
2022-08-07T17:23:00.172Z,0.60
2022-08-07T17:25:52.110Z,0.68
2022-08-07T17:28:35.273Z,0.60
2022-08-07T17:31:20.515Z,0.60
2022-08-07T17:34:33.038Z,0.70
2022-08-07T17:37:09.037Z,0.63
2022-08-07T17:40:14.436Z,0.70
2022-08-07T17:43:17.787Z,0.60
2022-08-07T17:45:56.671Z,0.50
2022-08-07T17:48:31.890Z,0.65
2022-08-07T17:51:59.824Z,0.52
2022-08-07T17:54:53.719Z,0.50
2022-08-07T17:57:58.573Z,0.60
2022-08-07T18:00:34.691Z,0.70
2022-08-07T18:04:04.071Z,0.80
2022-08-07T18:06:39.022Z,0.70
2022-08-07T18:09:48.406Z,0.90
2022-08-07T18:12:30.445Z,0.80
2022-08-07T18:15:22.613Z,0.80
2022-08-07T18:18:45.695Z,0.80
2022-08-07T18:21:37.337Z,0.60
2022-08-07T18:24:34.449Z,0.80
2022-08-07T18:27:38.962Z,0.70
2022-08-07T18:30:31.850Z,0.80
2022-08-07T18:33:55.017Z,0.90
2022-08-07T18:36:59.135Z,0.80
2022-08-07T18:40:42.807Z,0.85
2022-08-07T18:43:50.578Z,0.70
2022-08-07T18:46:42.846Z,0.70
2022-08-07T18:50:19.230Z,0.73
2022-08-07T18:52:55.102Z,0.80
2022-08-07T18:55:56.204Z,0.70
2022-08-07T18:59:46.712Z,0.70
2022-08-07T19:02:36.836Z,0.77
2022-08-07T19:06:03.426Z,1.00
2022-08-07T19:08:40.998Z,0.80
2022-08-07T19:11:36.082Z,0.85
2022-08-07T19:14:35.796Z,0.88
2022-08-07T19:17:22.097Z,0.90
2022-08-07T19:20:29.191Z,0.80
2022-08-07T19:23:56.927Z,0.60
2022-08-07T19:26:23.122Z,0.80
2022-08-07T19:31:01.926Z,0.75
2022-08-07T19:32:18.630Z,0.70
2022-08-07T19:34:52.838Z,0.90
2022-08-07T19:37:22.719Z,0.90
2022-08-07T19:40:04.882Z,0.87
2022-08-07T19:42:44.400Z,0.70
2022-08-07T19:48:18.463Z,1.10
2022-08-07T19:50:51.094Z,0.90
2022-08-07T19:54:32.589Z,0.65
2022-08-07T19:58:02.492Z,0.82
2022-08-07T20:01:56.274Z,0.90
2022-08-07T20:04:31.683Z,0.80
2022-08-07T20:07:10.592Z,0.90
2022-08-07T20:10:35.779Z,0.80
2022-08-07T20:12:39.793Z,0.80
2022-08-07T20:15:21.911Z,0.90
2022-08-07T20:18:01.264Z,0.88
2022-08-07T20:20:32.736Z,0.80
2022-08-07T20:23:23.036Z,0.63
2022-08-07T20:25:56.060Z,0.90
2022-08-07T20:28:30.737Z,0.90
2022-08-07T20:30:59.286Z,0.90
2022-08-07T20:33:38.180Z,0.90
2022-08-07T20:36:09.754Z,0.70
2022-08-07T20:38:59.474Z,0.93
2022-08-07T20:41:34.064Z,1.00
2022-08-07T20:44:10.451Z,1.00
2022-08-07T20:46:43.880Z,0.75
2022-08-07T20:49:59.943Z,0.95
2022-08-07T20:52:16.437Z,0.80
2022-08-07T20:54:53.201Z,1.10
2022-08-07T20:57:47.466Z,0.90
2022-08-07T21:00:42.757Z,0.90
2022-08-07T21:03:19.116Z,1.00
2022-08-07T21:06:03.476Z,0.95
2022-08-07T21:08:46.682Z,1.05
2022-08-07T21:11:18.339Z,1.17
2022-08-07T21:14:16.631Z,1.02
2022-08-07T21:16:56.797Z,0.90
2022-08-07T21:22:45.113Z,1.00
2022-08-07T21:25:39.235Z,1.48
2022-08-07T21:28:48.680Z,1.40
2022-08-07T21:32:41.806Z,1.88
2022-08-07T21:35:11.505Z,1.90
2022-08-07T21:38:04.430Z,1.90
2022-08-07T21:40:49.878Z,1.80
2022-08-07T21:43:25.346Z,1.70
2022-08-07T21:46:31.743Z,1.52
2022-08-07T21:49:26.822Z,1.45
2022-08-07T21:52:11.460Z,1.58
2022-08-07T21:55:03.592Z,1.50
2022-08-07T21:58:04.281Z,1.70
2022-08-07T22:00:32.419Z,1.70
2022-08-07T22:03:30.872Z,1.27
2022-08-07T22:06:31.282Z,1.20
2022-08-07T22:09:25.083Z,1.30
2022-08-07T22:12:06.805Z,1.35
2022-08-07T22:16:40.235Z,1.27
2022-08-07T22:18:14.821Z,1.30
2022-08-07T22:20:59.721Z,1.15
2022-08-07T22:23:56.852Z,1.10
2022-08-07T22:26:40.081Z,1.30
2022-08-07T22:29:37.797Z,1.23
2022-08-07T22:32:37.655Z,1.00
2022-08-07T22:35:11.156Z,0.70
2022-08-07T22:38:20.594Z,1.00
2022-08-07T22:41:11.596Z,1.10
2022-08-07T22:43:49.566Z,0.98
2022-08-07T22:47:14.982Z,1.00
2022-08-07T22:50:33.511Z,1.00
2022-08-07T22:54:05.573Z,1.10
2022-08-07T22:56:35.431Z,1.00
2022-08-07T22:59:34.676Z,1.00
2022-08-07T23:02:37.290Z,0.85
2022-08-07T23:06:08.856Z,1.25
2022-08-07T23:08:23.863Z,1.10
2022-08-07T23:11:21.331Z,1.10
2022-08-07T23:14:40.357Z,1.20
2022-08-07T23:17:37.605Z,1.20
2022-08-07T23:20:51.157Z,1.60
2022-08-07T23:24:04.167Z,1.40
2022-08-07T23:26:50.567Z,1.50
2022-08-07T23:30:38.667Z,1.60
2022-08-07T23:34:34.557Z,1.10
2022-08-07T23:36:43.065Z,1.20
2022-08-07T23:39:27.555Z,1.20
2022-08-07T23:42:53.375Z,1.00
2022-08-07T23:46:02.675Z,1.20
2022-08-07T23:49:49.867Z,1.00
2022-08-07T23:53:01.774Z,1.00
2022-08-07T23:55:53.045Z,1.00
2022-08-07T23:58:51.024Z,1.00
